sensor_id;sensor_type;location;lat;lon;timestamp;P1;durP1;ratioP1;P2;durP2;ratioP2
72388;SDS011;60566;48.062;9.930;2023-03-23T00:02:06;9.63;;;4.80;;
72388;SDS011;60566;48.062;9.930;2023-03-23T00:04:33;11.52;;;5.30;;
72388;SDS011;60566;48.062;9.930;2023-03-23T00:06:58;11.48;;;5.30;;
72388;SDS011;60566;48.062;9.930;2023-03-23T00:09:24;10.60;;;4.93;;
72388;SDS011;60566;48.062;9.930;2023-03-23T00:11:49;8.07;;;4.47;;
72388;SDS011;60566;48.062;9.930;2023-03-23T00:14:15;13.10;;;5.45;;
72388;SDS011;60566;48.062;9.930;2023-03-23T00:16:40;9.55;;;4.28;;
72388;SDS011;60566;48.062;9.930;2023-03-23T00:19:06;10.30;;;5.03;;
72388;SDS011;60566;48.062;9.930;2023-03-23T00:21:35;10.10;;;5.43;;
72388;SDS011;60566;48.062;9.930;2023-03-23T00:26:27;7.75;;;4.15;;
72388;SDS011;60566;48.062;9.930;2023-03-23T00:28:53;9.25;;;4.53;;
72388;SDS011;60566;48.062;9.930;2023-03-23T00:31:18;8.93;;;4.90;;
72388;SDS011;60566;48.062;9.930;2023-03-23T00:33:44;11.43;;;4.90;;
72388;SDS011;60566;48.062;9.930;2023-03-23T00:36:13;9.73;;;4.90;;
72388;SDS011;60566;48.062;9.930;2023-03-23T00:38:40;9.75;;;4.55;;
72388;SDS011;60566;48.062;9.930;2023-03-23T00:41:06;9.75;;;4.68;;
72388;SDS011;60566;48.062;9.930;2023-03-23T00:43:32;8.30;;;4.35;;
72388;SDS011;60566;48.062;9.930;2023-03-23T00:45:58;10.48;;;4.82;;
72388;SDS011;60566;48.062;9.930;2023-03-23T00:48:24;10.05;;;5.00;;
72388;SDS011;60566;48.062;9.930;2023-03-23T00:50:50;10.73;;;5.50;;
72388;SDS011;60566;48.062;9.930;2023-03-23T00:53:16;10.32;;;4.05;;
72388;SDS011;60566;48.062;9.930;2023-03-23T00:55:43;8.85;;;4.78;;
72388;SDS011;60566;48.062;9.930;2023-03-23T00:58:09;9.77;;;5.13;;
72388;SDS011;60566;48.062;9.930;2023-03-23T01:00:35;8.85;;;5.20;;
72388;SDS011;60566;48.062;9.930;2023-03-23T01:03:00;10.52;;;5.10;;
72388;SDS011;60566;48.062;9.930;2023-03-23T01:05:26;9.80;;;4.95;;
72388;SDS011;60566;48.062;9.930;2023-03-23T01:07:51;12.07;;;5.07;;
72388;SDS011;60566;48.062;9.930;2023-03-23T01:10:17;13.02;;;5.32;;
72388;SDS011;60566;48.062;9.930;2023-03-23T01:12:44;9.20;;;5.18;;
72388;SDS011;60566;48.062;9.930;2023-03-23T01:15:12;10.73;;;5.28;;
72388;SDS011;60566;48.062;9.930;2023-03-23T01:17:38;10.57;;;5.40;;
72388;SDS011;60566;48.062;9.930;2023-03-23T01:20:04;11.27;;;5.25;;
72388;SDS011;60566;48.062;9.930;2023-03-23T01:22:31;10.20;;;5.07;;
72388;SDS011;60566;48.062;9.930;2023-03-23T01:24:57;10.05;;;5.18;;
72388;SDS011;60566;48.062;9.930;2023-03-23T01:27:22;11.30;;;5.68;;
72388;SDS011;60566;48.062;9.930;2023-03-23T01:29:49;8.70;;;5.28;;
72388;SDS011;60566;48.062;9.930;2023-03-23T01:32:14;10.23;;;5.82;;
72388;SDS011;60566;48.062;9.930;2023-03-23T01:34:40;10.70;;;5.47;;
72388;SDS011;60566;48.062;9.930;2023-03-23T01:37:05;11.32;;;5.57;;
72388;SDS011;60566;48.062;9.930;2023-03-23T01:39:30;11.45;;;6.22;;
72388;SDS011;60566;48.062;9.930;2023-03-23T01:41:56;11.55;;;5.70;;
72388;SDS011;60566;48.062;9.930;2023-03-23T01:47:39;11.52;;;4.90;;
72388;SDS011;60566;48.062;9.930;2023-03-23T01:50:05;12.07;;;5.53;;
72388;SDS011;60566;48.062;9.930;2023-03-23T01:52:31;10.25;;;5.53;;
72388;SDS011;60566;48.062;9.930;2023-03-23T01:54:56;11.85;;;5.95;;
72388;SDS011;60566;48.062;9.930;2023-03-23T01:57:23;11.05;;;5.90;;
72388;SDS011;60566;48.062;9.930;2023-03-23T01:59:50;10.85;;;5.03;;
72388;SDS011;60566;48.062;9.930;2023-03-23T02:02:17;8.88;;;4.57;;
72388;SDS011;60566;48.062;9.930;2023-03-23T02:04:46;11.65;;;5.22;;
72388;SDS011;60566;48.062;9.930;2023-03-23T02:07:12;10.38;;;4.75;;
72388;SDS011;60566;48.062;9.930;2023-03-23T02:09:38;8.95;;;4.93;;
72388;SDS011;60566;48.062;9.930;2023-03-23T02:12:03;8.18;;;4.35;;
72388;SDS011;60566;48.062;9.930;2023-03-23T02:14:29;12.05;;;4.85;;
72388;SDS011;60566;48.062;9.930;2023-03-23T02:16:55;8.35;;;4.60;;
72388;SDS011;60566;48.062;9.930;2023-03-23T02:19:33;10.35;;;5.07;;
72388;SDS011;60566;48.062;9.930;2023-03-23T02:22:22;9.23;;;4.43;;
72388;SDS011;60566;48.062;9.930;2023-03-23T02:25:13;10.15;;;5.45;;
72388;SDS011;60566;48.062;9.930;2023-03-23T02:28:03;10.52;;;5.00;;
72388;SDS011;60566;48.062;9.930;2023-03-23T02:30:40;9.38;;;4.55;;
72388;SDS011;60566;48.062;9.930;2023-03-23T02:33:28;8.50;;;4.60;;
72388;SDS011;60566;48.062;9.930;2023-03-23T02:35:58;10.48;;;4.70;;
72388;SDS011;60566;48.062;9.930;2023-03-23T02:40:51;8.07;;;4.35;;
72388;SDS011;60566;48.062;9.930;2023-03-23T02:43:20;7.10;;;3.97;;
72388;SDS011;60566;48.062;9.930;2023-03-23T02:45:47;8.75;;;4.90;;
72388;SDS011;60566;48.062;9.930;2023-03-23T02:48:15;7.93;;;4.35;;
72388;SDS011;60566;48.062;9.930;2023-03-23T02:50:44;9.05;;;4.78;;
72388;SDS011;60566;48.062;9.930;2023-03-23T02:53:12;9.77;;;4.80;;
72388;SDS011;60566;48.062;9.930;2023-03-23T02:55:39;9.90;;;4.88;;
72388;SDS011;60566;48.062;9.930;2023-03-23T02:58:06;9.40;;;4.55;;
72388;SDS011;60566;48.062;9.930;2023-03-23T03:00:31;9.23;;;4.85;;
72388;SDS011;60566;48.062;9.930;2023-03-23T03:02:57;9.75;;;4.97;;
72388;SDS011;60566;48.062;9.930;2023-03-23T03:05:26;8.27;;;4.70;;
72388;SDS011;60566;48.062;9.930;2023-03-23T03:08:02;9.57;;;5.22;;
72388;SDS011;60566;48.062;9.930;2023-03-23T03:10:41;14.18;;;5.72;;
72388;SDS011;60566;48.062;9.930;2023-03-23T03:13:13;10.20;;;5.10;;
72388;SDS011;60566;48.062;9.930;2023-03-23T03:15:47;9.38;;;4.40;;
72388;SDS011;60566;48.062;9.930;2023-03-23T03:18:16;9.23;;;5.18;;
72388;SDS011;60566;48.062;9.930;2023-03-23T03:20:45;9.15;;;4.90;;
72388;SDS011;60566;48.062;9.930;2023-03-23T03:23:15;9.38;;;4.70;;
72388;SDS011;60566;48.062;9.930;2023-03-23T03:25:41;9.13;;;4.63;;
72388;SDS011;60566;48.062;9.930;2023-03-23T03:28:08;9.35;;;4.75;;
72388;SDS011;60566;48.062;9.930;2023-03-23T03:30:33;8.35;;;4.57;;
72388;SDS011;60566;48.062;9.930;2023-03-23T03:33:00;10.25;;;5.20;;
72388;SDS011;60566;48.062;9.930;2023-03-23T03:35:26;10.90;;;5.07;;
72388;SDS011;60566;48.062;9.930;2023-03-23T03:37:52;10.55;;;5.18;;
72388;SDS011;60566;48.062;9.930;2023-03-23T03:40:20;8.25;;;4.60;;
72388;SDS011;60566;48.062;9.930;2023-03-23T03:45:12;8.33;;;4.87;;
72388;SDS011;60566;48.062;9.930;2023-03-23T03:47:40;8.93;;;4.47;;
72388;SDS011;60566;48.062;9.930;2023-03-23T03:50:06;9.40;;;5.00;;
72388;SDS011;60566;48.062;9.930;2023-03-23T03:52:32;11.63;;;5.22;;
72388;SDS011;60566;48.062;9.930;2023-03-23T03:54:58;7.28;;;4.15;;
72388;SDS011;60566;48.062;9.930;2023-03-23T03:57:25;9.68;;;5.13;;
72388;SDS011;60566;48.062;9.930;2023-03-23T03:59:50;11.55;;;4.30;;
72388;SDS011;60566;48.062;9.930;2023-03-23T04:02:15;7.93;;;4.20;;
72388;SDS011;60566;48.062;9.930;2023-03-23T04:04:41;10.82;;;4.55;;
72388;SDS011;60566;48.062;9.930;2023-03-23T04:07:06;9.95;;;4.55;;
72388;SDS011;60566;48.062;9.930;2023-03-23T04:09:32;9.25;;;4.75;;
72388;SDS011;60566;48.062;9.930;2023-03-23T04:11:57;9.80;;;4.55;;
72388;SDS011;60566;48.062;9.930;2023-03-23T04:14:24;7.22;;;4.47;;
72388;SDS011;60566;48.062;9.930;2023-03-23T04:16:49;8.35;;;4.25;;
72388;SDS011;60566;48.062;9.930;2023-03-23T04:19:14;8.98;;;4.57;;
72388;SDS011;60566;48.062;9.930;2023-03-23T04:21:40;9.40;;;4.68;;
72388;SDS011;60566;48.062;9.930;2023-03-23T04:24:05;8.80;;;4.00;;
72388;SDS011;60566;48.062;9.930;2023-03-23T04:26:31;9.45;;;4.03;;
72388;SDS011;60566;48.062;9.930;2023-03-23T04:28:57;8.02;;;4.20;;
72388;SDS011;60566;48.062;9.930;2023-03-23T04:31:23;10.00;;;4.28;;
72388;SDS011;60566;48.062;9.930;2023-03-23T04:33:49;8.13;;;4.55;;
72388;SDS011;60566;48.062;9.930;2023-03-23T04:36:14;9.13;;;4.60;;
72388;SDS011;60566;48.062;9.930;2023-03-23T04:38:39;8.68;;;4.43;;
72388;SDS011;60566;48.062;9.930;2023-03-23T04:41:05;9.98;;;3.83;;
72388;SDS011;60566;48.062;9.930;2023-03-23T04:43:30;7.45;;;3.47;;
72388;SDS011;60566;48.062;9.930;2023-03-23T04:45:56;7.05;;;3.25;;
72388;SDS011;60566;48.062;9.930;2023-03-23T04:48:23;6.18;;;3.35;;
72388;SDS011;60566;48.062;9.930;2023-03-23T04:50:49;5.85;;;2.83;;
72388;SDS011;60566;48.062;9.930;2023-03-23T04:53:14;7.10;;;3.65;;
72388;SDS011;60566;48.062;9.930;2023-03-23T04:55:40;6.57;;;3.50;;
72388;SDS011;60566;48.062;9.930;2023-03-23T04:58:06;7.22;;;3.55;;
72388;SDS011;60566;48.062;9.930;2023-03-23T05:00:32;7.07;;;3.58;;
72388;SDS011;60566;48.062;9.930;2023-03-23T05:02:58;7.20;;;3.80;;
72388;SDS011;60566;48.062;9.930;2023-03-23T05:05:24;8.75;;;3.92;;
72388;SDS011;60566;48.062;9.930;2023-03-23T05:07:50;7.10;;;4.18;;
72388;SDS011;60566;48.062;9.930;2023-03-23T05:10:16;6.75;;;3.60;;
72388;SDS011;60566;48.062;9.930;2023-03-23T05:12:42;9.02;;;4.53;;
72388;SDS011;60566;48.062;9.930;2023-03-23T05:15:08;8.00;;;3.70;;
72388;SDS011;60566;48.062;9.930;2023-03-23T05:17:35;8.40;;;4.05;;
72388;SDS011;60566;48.062;9.930;2023-03-23T05:20:01;8.43;;;4.13;;
72388;SDS011;60566;48.062;9.930;2023-03-23T05:22:28;7.70;;;3.78;;
72388;SDS011;60566;48.062;9.930;2023-03-23T05:24:54;8.27;;;3.88;;
72388;SDS011;60566;48.062;9.930;2023-03-23T05:27:19;6.20;;;3.83;;
72388;SDS011;60566;48.062;9.930;2023-03-23T05:29:45;6.07;;;3.20;;
72388;SDS011;60566;48.062;9.930;2023-03-23T05:32:11;7.20;;;3.90;;
72388;SDS011;60566;48.062;9.930;2023-03-23T05:34:36;7.93;;;3.97;;
72388;SDS011;60566;48.062;9.930;2023-03-23T05:37:02;7.72;;;4.15;;
72388;SDS011;60566;48.062;9.930;2023-03-23T05:39:29;8.00;;;4.10;;
72388;SDS011;60566;48.062;9.930;2023-03-23T05:41:55;7.20;;;3.88;;
72388;SDS011;60566;48.062;9.930;2023-03-23T05:44:21;8.45;;;4.35;;
72388;SDS011;60566;48.062;9.930;2023-03-23T05:46:46;8.85;;;3.70;;
72388;SDS011;60566;48.062;9.930;2023-03-23T05:49:12;8.07;;;4.35;;
72388;SDS011;60566;48.062;9.930;2023-03-23T05:51:38;8.30;;;4.35;;
72388;SDS011;60566;48.062;9.930;2023-03-23T05:54:03;7.75;;;3.88;;
72388;SDS011;60566;48.062;9.930;2023-03-23T05:56:30;8.70;;;4.32;;
72388;SDS011;60566;48.062;9.930;2023-03-23T05:58:55;9.52;;;5.10;;
72388;SDS011;60566;48.062;9.930;2023-03-23T06:01:21;6.85;;;3.80;;
72388;SDS011;60566;48.062;9.930;2023-03-23T06:03:46;8.95;;;4.03;;
72388;SDS011;60566;48.062;9.930;2023-03-23T06:06:11;9.15;;;4.20;;
72388;SDS011;60566;48.062;9.930;2023-03-23T06:08:37;7.90;;;3.88;;
72388;SDS011;60566;48.062;9.930;2023-03-23T06:11:02;8.68;;;4.43;;
72388;SDS011;60566;48.062;9.930;2023-03-23T06:13:29;7.75;;;4.38;;
72388;SDS011;60566;48.062;9.930;2023-03-23T06:15:55;10.30;;;4.40;;
72388;SDS011;60566;48.062;9.930;2023-03-23T06:18:21;8.43;;;3.90;;
72388;SDS011;60566;48.062;9.930;2023-03-23T06:20:46;11.05;;;5.35;;
72388;SDS011;60566;48.062;9.930;2023-03-23T06:23:11;9.35;;;4.32;;
72388;SDS011;60566;48.062;9.930;2023-03-23T06:25:37;6.50;;;3.78;;
72388;SDS011;60566;48.062;9.930;2023-03-23T06:28:02;7.78;;;4.15;;
72388;SDS011;60566;48.062;9.930;2023-03-23T06:30:29;7.50;;;4.13;;
72388;SDS011;60566;48.062;9.930;2023-03-23T06:32:54;8.00;;;4.07;;
72388;SDS011;60566;48.062;9.930;2023-03-23T06:35:19;8.30;;;4.35;;
72388;SDS011;60566;48.062;9.930;2023-03-23T06:37:45;7.05;;;4.07;;
72388;SDS011;60566;48.062;9.930;2023-03-23T06:40:10;9.15;;;4.72;;
72388;SDS011;60566;48.062;9.930;2023-03-23T06:42:36;8.73;;;4.05;;
72388;SDS011;60566;48.062;9.930;2023-03-23T06:45:02;10.63;;;5.18;;
72388;SDS011;60566;48.062;9.930;2023-03-23T06:47:29;7.75;;;3.60;;
72388;SDS011;60566;48.062;9.930;2023-03-23T06:49:54;8.45;;;4.10;;
72388;SDS011;60566;48.062;9.930;2023-03-23T06:52:20;6.90;;;3.78;;
72388;SDS011;60566;48.062;9.930;2023-03-23T06:54:46;7.45;;;3.80;;
72388;SDS011;60566;48.062;9.930;2023-03-23T06:57:11;7.80;;;3.88;;
72388;SDS011;60566;48.062;9.930;2023-03-23T06:59:36;7.95;;;4.30;;
72388;SDS011;60566;48.062;9.930;2023-03-23T07:02:02;7.90;;;3.75;;
72388;SDS011;60566;48.062;9.930;2023-03-23T07:04:29;7.38;;;4.00;;
72388;SDS011;60566;48.062;9.930;2023-03-23T07:06:54;7.13;;;4.60;;
72388;SDS011;60566;48.062;9.930;2023-03-23T07:09:19;6.65;;;3.95;;
72388;SDS011;60566;48.062;9.930;2023-03-23T07:11:45;7.10;;;3.63;;
72388;SDS011;60566;48.062;9.930;2023-03-23T07:14:10;7.25;;;3.55;;
72388;SDS011;60566;48.062;9.930;2023-03-23T07:16:36;6.32;;;3.83;;
72388;SDS011;60566;48.062;9.930;2023-03-23T07:19:01;6.38;;;3.42;;
72388;SDS011;60566;48.062;9.930;2023-03-23T07:21:28;9.38;;;3.20;;
72388;SDS011;60566;48.062;9.930;2023-03-23T07:23:53;7.25;;;3.40;;
72388;SDS011;60566;48.062;9.930;2023-03-23T07:26:19;8.43;;;3.92;;
72388;SDS011;60566;48.062;9.930;2023-03-23T07:28:45;6.20;;;3.28;;
72388;SDS011;60566;48.062;9.930;2023-03-23T07:31:10;6.75;;;3.75;;
72388;SDS011;60566;48.062;9.930;2023-03-23T07:33:35;8.80;;;3.63;;
72388;SDS011;60566;48.062;9.930;2023-03-23T07:36:01;7.18;;;3.58;;
72388;SDS011;60566;48.062;9.930;2023-03-23T07:38:28;7.82;;;3.97;;
72388;SDS011;60566;48.062;9.930;2023-03-23T07:40:53;9.82;;;3.45;;
72388;SDS011;60566;48.062;9.930;2023-03-23T07:43:19;7.30;;;4.28;;
72388;SDS011;60566;48.062;9.930;2023-03-23T07:45:44;7.38;;;3.88;;
72388;SDS011;60566;48.062;9.930;2023-03-23T07:48:10;7.25;;;3.42;;
72388;SDS011;60566;48.062;9.930;2023-03-23T07:50:35;6.13;;;3.33;;
72388;SDS011;60566;48.062;9.930;2023-03-23T07:53:01;8.23;;;3.22;;
72388;SDS011;60566;48.062;9.930;2023-03-23T07:55:27;9.38;;;3.65;;
72388;SDS011;60566;48.062;9.930;2023-03-23T07:57:53;6.45;;;3.17;;
72388;SDS011;60566;48.062;9.930;2023-03-23T08:00:20;6.78;;;2.92;;
72388;SDS011;60566;48.062;9.930;2023-03-23T08:02:46;5.97;;;3.08;;
72388;SDS011;60566;48.062;9.930;2023-03-23T08:05:12;6.82;;;3.13;;
72388;SDS011;60566;48.062;9.930;2023-03-23T08:07:38;7.80;;;3.63;;
72388;SDS011;60566;48.062;9.930;2023-03-23T08:10:03;7.03;;;3.97;;
72388;SDS011;60566;48.062;9.930;2023-03-23T08:12:31;6.68;;;3.10;;
72388;SDS011;60566;48.062;9.930;2023-03-23T08:14:56;5.50;;;3.33;;
72388;SDS011;60566;48.062;9.930;2023-03-23T08:17:22;7.13;;;2.80;;
72388;SDS011;60566;48.062;9.930;2023-03-23T08:19:47;5.80;;;2.83;;
72388;SDS011;60566;48.062;9.930;2023-03-23T08:22:12;6.70;;;2.80;;
72388;SDS011;60566;48.062;9.930;2023-03-23T08:24:38;7.28;;;3.78;;
72388;SDS011;60566;48.062;9.930;2023-03-23T08:27:03;5.78;;;3.15;;
72388;SDS011;60566;48.062;9.930;2023-03-23T08:29:30;6.28;;;2.97;;
72388;SDS011;60566;48.062;9.930;2023-03-23T08:31:56;6.38;;;3.25;;
72388;SDS011;60566;48.062;9.930;2023-03-23T08:34:22;7.70;;;2.72;;
72388;SDS011;60566;48.062;9.930;2023-03-23T08:36:47;7.47;;;2.95;;
72388;SDS011;60566;48.062;9.930;2023-03-23T08:39:12;6.78;;;3.08;;
72388;SDS011;60566;48.062;9.930;2023-03-23T08:41:38;4.22;;;2.40;;
72388;SDS011;60566;48.062;9.930;2023-03-23T08:44:03;5.45;;;2.88;;
72388;SDS011;60566;48.062;9.930;2023-03-23T08:46:30;6.85;;;2.78;;
72388;SDS011;60566;48.062;9.930;2023-03-23T08:48:55;7.70;;;2.53;;
72388;SDS011;60566;48.062;9.930;2023-03-23T08:51:21;5.35;;;2.70;;
72388;SDS011;60566;48.062;9.930;2023-03-23T08:53:46;4.57;;;2.38;;
72388;SDS011;60566;48.062;9.930;2023-03-23T08:56:12;4.88;;;2.30;;
72388;SDS011;60566;48.062;9.930;2023-03-23T08:58:38;3.83;;;2.10;;
72388;SDS011;60566;48.062;9.930;2023-03-23T09:01:04;6.28;;;2.58;;
72388;SDS011;60566;48.062;9.930;2023-03-23T09:03:32;5.35;;;2.60;;
72388;SDS011;60566;48.062;9.930;2023-03-23T09:05:58;4.85;;;2.25;;
72388;SDS011;60566;48.062;9.930;2023-03-23T09:08:24;6.85;;;2.60;;
72388;SDS011;60566;48.062;9.930;2023-03-23T09:10:49;6.40;;;2.50;;
72388;SDS011;60566;48.062;9.930;2023-03-23T09:13:15;7.63;;;2.28;;
72388;SDS011;60566;48.062;9.930;2023-03-23T09:15:40;4.90;;;2.55;;
72388;SDS011;60566;48.062;9.930;2023-03-23T09:18:06;4.60;;;2.25;;
72388;SDS011;60566;48.062;9.930;2023-03-23T09:20:32;9.13;;;2.15;;
72388;SDS011;60566;48.062;9.930;2023-03-23T09:22:58;8.75;;;2.50;;
72388;SDS011;60566;48.062;9.930;2023-03-23T09:25:24;3.60;;;1.92;;
72388;SDS011;60566;48.062;9.930;2023-03-23T09:27:51;5.72;;;1.90;;
72388;SDS011;60566;48.062;9.930;2023-03-23T09:30:17;4.30;;;2.17;;
72388;SDS011;60566;48.062;9.930;2023-03-23T09:32:42;5.53;;;2.28;;
72388;SDS011;60566;48.062;9.930;2023-03-23T09:35:08;6.03;;;1.83;;
72388;SDS011;60566;48.062;9.930;2023-03-23T09:37:35;15.55;;;2.40;;
72388;SDS011;60566;48.062;9.930;2023-03-23T09:40:01;4.50;;;2.10;;
72388;SDS011;60566;48.062;9.930;2023-03-23T09:42:32;3.97;;;1.80;;
72388;SDS011;60566;48.062;9.930;2023-03-23T09:45:05;4.50;;;2.63;;
72388;SDS011;60566;48.062;9.930;2023-03-23T09:47:37;3.92;;;1.83;;
72388;SDS011;60566;48.062;9.930;2023-03-23T09:50:08;3.88;;;1.83;;
72388;SDS011;60566;48.062;9.930;2023-03-23T09:52:38;4.25;;;2.00;;
72388;SDS011;60566;48.062;9.930;2023-03-23T09:55:08;7.00;;;2.08;;
72388;SDS011;60566;48.062;9.930;2023-03-23T10:00:19;4.78;;;2.00;;
72388;SDS011;60566;48.062;9.930;2023-03-23T10:02:48;3.45;;;1.70;;
72388;SDS011;60566;48.062;9.930;2023-03-23T10:05:25;5.13;;;2.47;;
72388;SDS011;60566;48.062;9.930;2023-03-23T10:07:55;5.13;;;2.25;;
72388;SDS011;60566;48.062;9.930;2023-03-23T10:10:21;4.63;;;2.28;;
72388;SDS011;60566;48.062;9.930;2023-03-23T10:12:53;4.82;;;2.22;;
72388;SDS011;60566;48.062;9.930;2023-03-23T10:15:21;4.15;;;1.67;;
72388;SDS011;60566;48.062;9.930;2023-03-23T10:17:52;4.13;;;1.95;;
72388;SDS011;60566;48.062;9.930;2023-03-23T10:20:22;5.97;;;2.20;;
72388;SDS011;60566;48.062;9.930;2023-03-23T10:22:53;3.78;;;1.98;;
72388;SDS011;60566;48.062;9.930;2023-03-23T10:25:24;4.60;;;2.30;;
72388;SDS011;60566;48.062;9.930;2023-03-23T10:27:52;5.18;;;2.28;;
72388;SDS011;60566;48.062;9.930;2023-03-23T10:30:21;4.25;;;2.25;;
72388;SDS011;60566;48.062;9.930;2023-03-23T10:32:50;7.50;;;2.28;;
72388;SDS011;60566;48.062;9.930;2023-03-23T10:35:18;4.53;;;1.77;;
72388;SDS011;60566;48.062;9.930;2023-03-23T10:37:48;8.73;;;2.67;;
72388;SDS011;60566;48.062;9.930;2023-03-23T10:40:20;4.57;;;1.60;;
72388;SDS011;60566;48.062;9.930;2023-03-23T10:42:47;5.20;;;1.98;;
72388;SDS011;60566;48.062;9.930;2023-03-23T10:45:15;4.90;;;2.28;;
72388;SDS011;60566;48.062;9.930;2023-03-23T10:47:43;5.05;;;2.10;;
72388;SDS011;60566;48.062;9.930;2023-03-23T10:50:12;4.13;;;1.80;;
72388;SDS011;60566;48.062;9.930;2023-03-23T10:52:40;6.47;;;2.80;;
72388;SDS011;60566;48.062;9.930;2023-03-23T10:55:07;17.48;;;2.70;;
72388;SDS011;60566;48.062;9.930;2023-03-23T10:57:35;4.75;;;1.88;;
72388;SDS011;60566;48.062;9.930;2023-03-23T11:00:03;4.53;;;2.13;;
72388;SDS011;60566;48.062;9.930;2023-03-23T11:02:30;6.85;;;2.10;;
72388;SDS011;60566;48.062;9.930;2023-03-23T11:04:59;4.70;;;2.53;;
72388;SDS011;60566;48.062;9.930;2023-03-23T11:07:27;4.65;;;1.95;;
72388;SDS011;60566;48.062;9.930;2023-03-23T11:09:54;5.68;;;2.25;;
72388;SDS011;60566;48.062;9.930;2023-03-23T11:12:21;8.27;;;2.10;;
72388;SDS011;60566;48.062;9.930;2023-03-23T11:14:48;4.25;;;1.95;;
72388;SDS011;60566;48.062;9.930;2023-03-23T11:17:20;5.75;;;1.90;;
72388;SDS011;60566;48.062;9.930;2023-03-23T11:19:46;8.50;;;2.30;;
72388;SDS011;60566;48.062;9.930;2023-03-23T11:22:13;4.40;;;2.22;;
72388;SDS011;60566;48.062;9.930;2023-03-23T11:24:41;6.00;;;2.22;;
72388;SDS011;60566;48.062;9.930;2023-03-23T11:27:08;4.55;;;2.20;;
72388;SDS011;60566;48.062;9.930;2023-03-23T11:29:34;4.28;;;2.00;;
72388;SDS011;60566;48.062;9.930;2023-03-23T11:32:04;7.93;;;2.05;;
72388;SDS011;60566;48.062;9.930;2023-03-23T11:34:31;4.68;;;2.17;;
72388;SDS011;60566;48.062;9.930;2023-03-23T11:36:57;5.05;;;2.30;;
72388;SDS011;60566;48.062;9.930;2023-03-23T11:39:26;4.53;;;2.08;;
72388;SDS011;60566;48.062;9.930;2023-03-23T11:41:53;6.57;;;2.20;;
72388;SDS011;60566;48.062;9.930;2023-03-23T11:44:19;10.20;;;2.65;;
72388;SDS011;60566;48.062;9.930;2023-03-23T11:46:48;5.90;;;2.40;;
72388;SDS011;60566;48.062;9.930;2023-03-23T11:49:25;5.30;;;2.25;;
72388;SDS011;60566;48.062;9.930;2023-03-23T11:51:56;4.03;;;1.83;;
72388;SDS011;60566;48.062;9.930;2023-03-23T11:54:28;6.00;;;2.13;;
72388;SDS011;60566;48.062;9.930;2023-03-23T11:59:25;5.57;;;1.90;;
72388;SDS011;60566;48.062;9.930;2023-03-23T12:01:53;4.82;;;2.17;;
72388;SDS011;60566;48.062;9.930;2023-03-23T12:07:21;7.32;;;2.17;;
72388;SDS011;60566;48.062;9.930;2023-03-23T12:09:56;5.25;;;2.33;;
72388;SDS011;60566;48.062;9.930;2023-03-23T12:12:29;6.13;;;2.40;;
72388;SDS011;60566;48.062;9.930;2023-03-23T12:15:00;5.18;;;2.28;;
72388;SDS011;60566;48.062;9.930;2023-03-23T12:17:32;4.28;;;2.33;;
72388;SDS011;60566;48.062;9.930;2023-03-23T12:20:08;5.65;;;2.30;;
72388;SDS011;60566;48.062;9.930;2023-03-23T12:22:43;16.90;;;2.83;;
72388;SDS011;60566;48.062;9.930;2023-03-23T12:25:30;6.57;;;2.60;;
72388;SDS011;60566;48.062;9.930;2023-03-23T12:28:07;5.57;;;2.25;;
72388;SDS011;60566;48.062;9.930;2023-03-23T12:30:40;5.60;;;2.10;;
72388;SDS011;60566;48.062;9.930;2023-03-23T12:33:10;6.70;;;2.40;;
72388;SDS011;60566;48.062;9.930;2023-03-23T12:35:48;12.13;;;2.58;;
72388;SDS011;60566;48.062;9.930;2023-03-23T12:38:26;10.10;;;3.80;;
72388;SDS011;60566;48.062;9.930;2023-03-23T12:41:09;5.95;;;2.80;;
72388;SDS011;60566;48.062;9.930;2023-03-23T12:43:38;6.13;;;2.50;;
72388;SDS011;60566;48.062;9.930;2023-03-23T12:46:19;18.42;;;2.95;;
72388;SDS011;60566;48.062;9.930;2023-03-23T12:49:02;7.07;;;2.90;;
72388;SDS011;60566;48.062;9.930;2023-03-23T12:51:32;6.35;;;2.78;;
72388;SDS011;60566;48.062;9.930;2023-03-23T12:54:02;7.28;;;3.22;;
72388;SDS011;60566;48.062;9.930;2023-03-23T12:56:30;5.90;;;2.22;;
72388;SDS011;60566;48.062;9.930;2023-03-23T12:58:59;5.82;;;2.40;;
72388;SDS011;60566;48.062;9.930;2023-03-23T13:01:30;6.88;;;2.80;;
72388;SDS011;60566;48.062;9.930;2023-03-23T13:03:57;5.53;;;2.42;;
72388;SDS011;60566;48.062;9.930;2023-03-23T13:06:26;6.35;;;2.88;;
72388;SDS011;60566;48.062;9.930;2023-03-23T13:08:55;8.50;;;2.70;;
72388;SDS011;60566;48.062;9.930;2023-03-23T13:11:24;6.15;;;2.63;;
72388;SDS011;60566;48.062;9.930;2023-03-23T13:13:54;4.30;;;2.28;;
72388;SDS011;60566;48.062;9.930;2023-03-23T13:16:23;5.60;;;2.42;;
72388;SDS011;60566;48.062;9.930;2023-03-23T13:18:56;6.93;;;2.42;;
72388;SDS011;60566;48.062;9.930;2023-03-23T13:21:27;5.22;;;2.50;;
72388;SDS011;60566;48.062;9.930;2023-03-23T13:23:56;6.82;;;2.72;;
72388;SDS011;60566;48.062;9.930;2023-03-23T13:26:24;6.53;;;2.67;;
72388;SDS011;60566;48.062;9.930;2023-03-23T13:28:56;6.03;;;2.50;;
72388;SDS011;60566;48.062;9.930;2023-03-23T13:31:23;9.20;;;2.70;;
72388;SDS011;60566;48.062;9.930;2023-03-23T13:33:50;5.90;;;2.53;;
72388;SDS011;60566;48.062;9.930;2023-03-23T13:36:25;7.93;;;2.92;;
72388;SDS011;60566;48.062;9.930;2023-03-23T13:38:52;5.30;;;2.47;;
72388;SDS011;60566;48.062;9.930;2023-03-23T13:41:19;8.25;;;2.88;;
72388;SDS011;60566;48.062;9.930;2023-03-23T13:43:45;5.13;;;2.42;;
72388;SDS011;60566;48.062;9.930;2023-03-23T13:46:13;6.15;;;2.75;;
72388;SDS011;60566;48.062;9.930;2023-03-23T13:48:50;4.65;;;2.50;;
72388;SDS011;60566;48.062;9.930;2023-03-23T13:51:32;5.03;;;2.80;;
72388;SDS011;60566;48.062;9.930;2023-03-23T13:54:12;5.07;;;2.60;;
72388;SDS011;60566;48.062;9.930;2023-03-23T13:59:07;9.00;;;2.80;;
72388;SDS011;60566;48.062;9.930;2023-03-23T14:01:39;6.55;;;3.20;;
72388;SDS011;60566;48.062;9.930;2023-03-23T14:04:05;8.85;;;3.47;;
72388;SDS011;60566;48.062;9.930;2023-03-23T14:06:33;5.45;;;2.90;;
72388;SDS011;60566;48.062;9.930;2023-03-23T14:09:04;6.40;;;2.83;;
72388;SDS011;60566;48.062;9.930;2023-03-23T14:11:30;8.38;;;2.20;;
72388;SDS011;60566;48.062;9.930;2023-03-23T14:13:59;9.05;;;2.90;;
72388;SDS011;60566;48.062;9.930;2023-03-23T14:16:30;5.43;;;2.63;;
72388;SDS011;60566;48.062;9.930;2023-03-23T14:18:58;5.55;;;2.60;;
72388;SDS011;60566;48.062;9.930;2023-03-23T14:21:26;5.53;;;2.90;;
72388;SDS011;60566;48.062;9.930;2023-03-23T14:23:59;5.15;;;2.67;;
72388;SDS011;60566;48.062;9.930;2023-03-23T14:26:25;11.15;;;3.15;;
72388;SDS011;60566;48.062;9.930;2023-03-23T14:28:52;8.25;;;2.90;;
72388;SDS011;60566;48.062;9.930;2023-03-23T14:31:20;4.93;;;2.70;;
72388;SDS011;60566;48.062;9.930;2023-03-23T14:33:46;5.93;;;3.00;;
72388;SDS011;60566;48.062;9.930;2023-03-23T14:36:12;8.70;;;3.50;;
72388;SDS011;60566;48.062;9.930;2023-03-23T14:38:38;4.78;;;2.35;;
72388;SDS011;60566;48.062;9.930;2023-03-23T14:41:03;5.00;;;2.85;;
72388;SDS011;60566;48.062;9.930;2023-03-23T14:43:30;7.63;;;2.60;;
72388;SDS011;60566;48.062;9.930;2023-03-23T14:45:57;5.20;;;2.83;;
72388;SDS011;60566;48.062;9.930;2023-03-23T14:48:25;5.25;;;2.55;;
72388;SDS011;60566;48.062;9.930;2023-03-23T14:50:51;5.70;;;2.90;;
72388;SDS011;60566;48.062;9.930;2023-03-23T14:53:21;5.05;;;2.50;;
72388;SDS011;60566;48.062;9.930;2023-03-23T14:55:48;5.95;;;3.22;;
72388;SDS011;60566;48.062;9.930;2023-03-23T14:58:15;5.95;;;2.50;;
72388;SDS011;60566;48.062;9.930;2023-03-23T15:00:42;6.00;;;2.30;;
72388;SDS011;60566;48.062;9.930;2023-03-23T15:03:12;6.40;;;2.53;;
72388;SDS011;60566;48.062;9.930;2023-03-23T15:05:42;7.25;;;3.17;;
72388;SDS011;60566;48.062;9.930;2023-03-23T15:08:11;6.97;;;3.08;;
72388;SDS011;60566;48.062;9.930;2023-03-23T15:10:38;6.15;;;2.97;;